sensor_id;sensor_type;location;lat;lon;timestamp;P1;durP1;ratioP1;P2;durP2;ratioP2
26042;SDS011;13818;52.156;5.382;2023-06-22T00:01:19;11.20;;;6.05;;
26042;SDS011;13818;52.156;5.382;2023-06-22T00:03:47;7.50;;;4.18;;
26042;SDS011;13818;52.156;5.382;2023-06-22T00:06:13;12.07;;;5.25;;
26042;SDS011;13818;52.156;5.382;2023-06-22T00:08:40;11.57;;;4.82;;
26042;SDS011;13818;52.156;5.382;2023-06-22T00:11:07;8.13;;;4.50;;
26042;SDS011;13818;52.156;5.382;2023-06-22T00:13:35;9.35;;;3.83;;
26042;SDS011;13818;52.156;5.382;2023-06-22T00:16:01;12.75;;;5.65;;
26042;SDS011;13818;52.156;5.382;2023-06-22T00:18:28;6.57;;;3.25;;
26042;SDS011;13818;52.156;5.382;2023-06-22T00:20:55;10.10;;;5.05;;
26042;SDS011;13818;52.156;5.382;2023-06-22T00:23:23;9.80;;;5.43;;
26042;SDS011;13818;52.156;5.382;2023-06-22T00:25:50;15.90;;;5.65;;
26042;SDS011;13818;52.156;5.382;2023-06-22T00:28:17;9.73;;;6.05;;
26042;SDS011;13818;52.156;5.382;2023-06-22T00:30:45;10.18;;;5.60;;
26042;SDS011;13818;52.156;5.382;2023-06-22T00:33:12;14.67;;;5.17;;
26042;SDS011;13818;52.156;5.382;2023-06-22T00:35:39;8.98;;;4.25;;
26042;SDS011;13818;52.156;5.382;2023-06-22T00:38:06;10.48;;;5.45;;
26042;SDS011;13818;52.156;5.382;2023-06-22T00:40:33;11.75;;;5.60;;
26042;SDS011;13818;52.156;5.382;2023-06-22T00:43:00;9.93;;;4.88;;
26042;SDS011;13818;52.156;5.382;2023-06-22T00:45:26;11.13;;;5.97;;
26042;SDS011;13818;52.156;5.382;2023-06-22T00:47:54;9.73;;;4.93;;
26042;SDS011;13818;52.156;5.382;2023-06-22T00:50:23;11.98;;;5.20;;
26042;SDS011;13818;52.156;5.382;2023-06-22T00:52:52;12.02;;;4.78;;
26042;SDS011;13818;52.156;5.382;2023-06-22T00:55:21;15.35;;;5.72;;
26042;SDS011;13818;52.156;5.382;2023-06-22T00:57:48;9.40;;;4.68;;
26042;SDS011;13818;52.156;5.382;2023-06-22T01:00:15;8.93;;;5.18;;
26042;SDS011;13818;52.156;5.382;2023-06-22T01:02:44;9.80;;;5.00;;
26042;SDS011;13818;52.156;5.382;2023-06-22T01:05:14;9.75;;;4.63;;
26042;SDS011;13818;52.156;5.382;2023-06-22T01:07:42;9.13;;;5.20;;
26042;SDS011;13818;52.156;5.382;2023-06-22T01:10:18;11.38;;;4.68;;
26042;SDS011;13818;52.156;5.382;2023-06-22T01:12:51;10.40;;;5.38;;
26042;SDS011;13818;52.156;5.382;2023-06-22T01:15:21;12.55;;;5.53;;
26042;SDS011;13818;52.156;5.382;2023-06-22T01:17:51;10.43;;;5.80;;
26042;SDS011;13818;52.156;5.382;2023-06-22T01:20:20;12.70;;;5.57;;
26042;SDS011;13818;52.156;5.382;2023-06-22T01:22:51;7.68;;;3.58;;
26042;SDS011;13818;52.156;5.382;2023-06-22T01:25:28;10.75;;;5.43;;
26042;SDS011;13818;52.156;5.382;2023-06-22T01:28:03;10.40;;;5.70;;
26042;SDS011;13818;52.156;5.382;2023-06-22T01:33:09;8.05;;;4.22;;
26042;SDS011;13818;52.156;5.382;2023-06-22T01:35:37;7.60;;;4.18;;
26042;SDS011;13818;52.156;5.382;2023-06-22T01:38:04;9.23;;;5.50;;
26042;SDS011;13818;52.156;5.382;2023-06-22T01:40:32;12.02;;;5.88;;
26042;SDS011;13818;52.156;5.382;2023-06-22T01:43:00;7.95;;;3.60;;
26042;SDS011;13818;52.156;5.382;2023-06-22T01:45:27;10.73;;;4.53;;
26042;SDS011;13818;52.156;5.382;2023-06-22T01:47:55;11.75;;;5.88;;
26042;SDS011;13818;52.156;5.382;2023-06-22T01:50:22;8.82;;;4.95;;
26042;SDS011;13818;52.156;5.382;2023-06-22T01:52:49;6.95;;;4.13;;
26042;SDS011;13818;52.156;5.382;2023-06-22T01:55:15;11.93;;;5.30;;
26042;SDS011;13818;52.156;5.382;2023-06-22T01:57:42;14.63;;;6.28;;
26042;SDS011;13818;52.156;5.382;2023-06-22T02:00:09;14.75;;;7.22;;
26042;SDS011;13818;52.156;5.382;2023-06-22T02:02:42;15.70;;;6.72;;
26042;SDS011;13818;52.156;5.382;2023-06-22T02:05:16;9.70;;;4.80;;
26042;SDS011;13818;52.156;5.382;2023-06-22T02:07:46;12.07;;;6.75;;
26042;SDS011;13818;52.156;5.382;2023-06-22T02:10:16;13.48;;;7.00;;
26042;SDS011;13818;52.156;5.382;2023-06-22T02:12:45;10.80;;;6.13;;
26042;SDS011;13818;52.156;5.382;2023-06-22T02:15:14;14.15;;;6.28;;
26042;SDS011;13818;52.156;5.382;2023-06-22T02:17:41;14.77;;;6.57;;
26042;SDS011;13818;52.156;5.382;2023-06-22T02:20:12;11.85;;;4.90;;
26042;SDS011;13818;52.156;5.382;2023-06-22T02:22:40;13.27;;;6.00;;
26042;SDS011;13818;52.156;5.382;2023-06-22T02:25:07;16.63;;;6.97;;
26042;SDS011;13818;52.156;5.382;2023-06-22T02:27:33;8.65;;;4.22;;
26042;SDS011;13818;52.156;5.382;2023-06-22T02:30:00;14.77;;;6.88;;
26042;SDS011;13818;52.156;5.382;2023-06-22T02:32:26;9.10;;;5.47;;
26042;SDS011;13818;52.156;5.382;2023-06-22T02:34:53;14.18;;;7.32;;
26042;SDS011;13818;52.156;5.382;2023-06-22T02:37:19;12.75;;;6.55;;
26042;SDS011;13818;52.156;5.382;2023-06-22T02:39:47;13.35;;;6.90;;
26042;SDS011;13818;52.156;5.382;2023-06-22T02:42:13;14.32;;;6.53;;
26042;SDS011;13818;52.156;5.382;2023-06-22T02:44:40;15.35;;;7.32;;
26042;SDS011;13818;52.156;5.382;2023-06-22T02:47:07;13.68;;;7.25;;
26042;SDS011;13818;52.156;5.382;2023-06-22T02:49:33;12.35;;;7.15;;
26042;SDS011;13818;52.156;5.382;2023-06-22T02:52:00;14.35;;;7.57;;
26042;SDS011;13818;52.156;5.382;2023-06-22T02:54:26;15.27;;;6.70;;
26042;SDS011;13818;52.156;5.382;2023-06-22T02:56:54;12.95;;;6.93;;
26042;SDS011;13818;52.156;5.382;2023-06-22T02:59:21;14.65;;;6.85;;
26042;SDS011;13818;52.156;5.382;2023-06-22T03:01:48;17.73;;;7.68;;
26042;SDS011;13818;52.156;5.382;2023-06-22T03:04:15;15.85;;;7.03;;
26042;SDS011;13818;52.156;5.382;2023-06-22T03:06:42;15.25;;;7.65;;
26042;SDS011;13818;52.156;5.382;2023-06-22T03:09:08;12.80;;;7.22;;
26042;SDS011;13818;52.156;5.382;2023-06-22T03:11:35;14.20;;;7.47;;
26042;SDS011;13818;52.156;5.382;2023-06-22T03:14:03;12.93;;;7.45;;
26042;SDS011;13818;52.156;5.382;2023-06-22T03:16:30;12.38;;;6.25;;
26042;SDS011;13818;52.156;5.382;2023-06-22T03:18:56;14.77;;;7.28;;
26042;SDS011;13818;52.156;5.382;2023-06-22T03:21:23;14.77;;;7.68;;
26042;SDS011;13818;52.156;5.382;2023-06-22T03:23:49;13.55;;;7.65;;
26042;SDS011;13818;52.156;5.382;2023-06-22T03:26:16;12.30;;;5.07;;
26042;SDS011;13818;52.156;5.382;2023-06-22T03:28:43;13.82;;;7.70;;
26042;SDS011;13818;52.156;5.382;2023-06-22T03:31:11;16.63;;;7.57;;
26042;SDS011;13818;52.156;5.382;2023-06-22T03:33:37;13.73;;;7.47;;
26042;SDS011;13818;52.156;5.382;2023-06-22T03:36:04;15.77;;;6.95;;
26042;SDS011;13818;52.156;5.382;2023-06-22T03:38:30;10.00;;;5.03;;
26042;SDS011;13818;52.156;5.382;2023-06-22T03:40:57;12.43;;;7.10;;
26042;SDS011;13818;52.156;5.382;2023-06-22T03:43:23;9.55;;;5.47;;
26042;SDS011;13818;52.156;5.382;2023-06-22T03:45:50;12.20;;;7.20;;
26042;SDS011;13818;52.156;5.382;2023-06-22T03:48:17;19.48;;;7.65;;
26042;SDS011;13818;52.156;5.382;2023-06-22T03:50:44;16.42;;;7.65;;
26042;SDS011;13818;52.156;5.382;2023-06-22T03:53:10;13.25;;;7.68;;
26042;SDS011;13818;52.156;5.382;2023-06-22T03:55:40;13.80;;;7.68;;
26042;SDS011;13818;52.156;5.382;2023-06-22T03:58:13;15.25;;;8.43;;
26042;SDS011;13818;52.156;5.382;2023-06-22T04:00:40;14.30;;;7.25;;
26042;SDS011;13818;52.156;5.382;2023-06-22T04:03:06;16.35;;;8.13;;
26042;SDS011;13818;52.156;5.382;2023-06-22T04:05:34;13.48;;;8.02;;
26042;SDS011;13818;52.156;5.382;2023-06-22T04:08:01;14.30;;;7.03;;
26042;SDS011;13818;52.156;5.382;2023-06-22T04:10:27;13.93;;;7.60;;
26042;SDS011;13818;52.156;5.382;2023-06-22T04:12:54;19.85;;;8.88;;
26042;SDS011;13818;52.156;5.382;2023-06-22T04:15:20;14.95;;;8.25;;
26042;SDS011;13818;52.156;5.382;2023-06-22T04:17:46;20.15;;;8.77;;
26042;SDS011;13818;52.156;5.382;2023-06-22T04:20:13;16.13;;;7.93;;
26042;SDS011;13818;52.156;5.382;2023-06-22T04:22:41;14.82;;;7.85;;
26042;SDS011;13818;52.156;5.382;2023-06-22T04:25:07;14.35;;;7.90;;
26042;SDS011;13818;52.156;5.382;2023-06-22T04:27:34;16.10;;;8.88;;
26042;SDS011;13818;52.156;5.382;2023-06-22T04:30:02;16.98;;;8.00;;
26042;SDS011;13818;52.156;5.382;2023-06-22T04:32:29;17.77;;;7.47;;
26042;SDS011;13818;52.156;5.382;2023-06-22T04:34:55;14.52;;;8.02;;
26042;SDS011;13818;52.156;5.382;2023-06-22T04:37:22;17.20;;;8.50;;
26042;SDS011;13818;52.156;5.382;2023-06-22T04:39:50;15.65;;;8.52;;
26042;SDS011;13818;52.156;5.382;2023-06-22T04:42:18;17.92;;;9.25;;
26042;SDS011;13818;52.156;5.382;2023-06-22T04:44:44;16.65;;;7.93;;
26042;SDS011;13818;52.156;5.382;2023-06-22T04:47:11;20.90;;;8.30;;
26042;SDS011;13818;52.156;5.382;2023-06-22T04:49:37;18.75;;;9.07;;
26042;SDS011;13818;52.156;5.382;2023-06-22T04:52:06;18.00;;;8.48;;
26042;SDS011;13818;52.156;5.382;2023-06-22T04:54:34;19.50;;;9.23;;
26042;SDS011;13818;52.156;5.382;2023-06-22T04:57:04;14.73;;;8.80;;
26042;SDS011;13818;52.156;5.382;2023-06-22T04:59:35;15.32;;;7.88;;
26042;SDS011;13818;52.156;5.382;2023-06-22T05:04:31;15.38;;;8.27;;
26042;SDS011;13818;52.156;5.382;2023-06-22T05:06:58;15.30;;;8.27;;
26042;SDS011;13818;52.156;5.382;2023-06-22T05:09:25;20.17;;;8.90;;
26042;SDS011;13818;52.156;5.382;2023-06-22T05:11:52;13.65;;;9.13;;
26042;SDS011;13818;52.156;5.382;2023-06-22T05:14:20;16.55;;;9.20;;
26042;SDS011;13818;52.156;5.382;2023-06-22T05:16:46;19.13;;;9.38;;
26042;SDS011;13818;52.156;5.382;2023-06-22T05:19:13;16.73;;;8.95;;
26042;SDS011;13818;52.156;5.382;2023-06-22T05:21:39;15.95;;;9.75;;
26042;SDS011;13818;52.156;5.382;2023-06-22T05:24:06;19.70;;;10.10;;
26042;SDS011;13818;52.156;5.382;2023-06-22T05:26:33;16.40;;;9.98;;
26042;SDS011;13818;52.156;5.382;2023-06-22T05:29:00;17.27;;;10.77;;
26042;SDS011;13818;52.156;5.382;2023-06-22T05:31:29;16.95;;;11.40;;
26042;SDS011;13818;52.156;5.382;2023-06-22T05:33:56;17.55;;;10.85;;
26042;SDS011;13818;52.156;5.382;2023-06-22T05:36:22;19.08;;;11.55;;
26042;SDS011;13818;52.156;5.382;2023-06-22T05:38:50;20.52;;;11.15;;
26042;SDS011;13818;52.156;5.382;2023-06-22T05:41:19;21.98;;;11.32;;
26042;SDS011;13818;52.156;5.382;2023-06-22T05:43:45;22.33;;;12.13;;
26042;SDS011;13818;52.156;5.382;2023-06-22T05:46:12;22.75;;;12.20;;
26042;SDS011;13818;52.156;5.382;2023-06-22T05:48:40;23.15;;;12.35;;
26042;SDS011;13818;52.156;5.382;2023-06-22T05:51:06;22.00;;;13.52;;
26042;SDS011;13818;52.156;5.382;2023-06-22T05:53:33;22.30;;;12.68;;
26042;SDS011;13818;52.156;5.382;2023-06-22T05:55:59;22.48;;;11.82;;
26042;SDS011;13818;52.156;5.382;2023-06-22T05:58:26;25.88;;;13.18;;
26042;SDS011;13818;52.156;5.382;2023-06-22T06:00:52;24.73;;;14.15;;
26042;SDS011;13818;52.156;5.382;2023-06-22T06:03:19;23.00;;;13.07;;
26042;SDS011;13818;52.156;5.382;2023-06-22T06:05:47;19.88;;;12.73;;
26042;SDS011;13818;52.156;5.382;2023-06-22T06:08:13;23.05;;;13.50;;
26042;SDS011;13818;52.156;5.382;2023-06-22T06:10:40;22.80;;;12.07;;
26042;SDS011;13818;52.156;5.382;2023-06-22T06:13:07;20.35;;;12.38;;
26042;SDS011;13818;52.156;5.382;2023-06-22T06:15:34;20.15;;;11.90;;
26042;SDS011;13818;52.156;5.382;2023-06-22T06:18:01;20.35;;;11.10;;
26042;SDS011;13818;52.156;5.382;2023-06-22T06:22:58;18.88;;;11.48;;
26042;SDS011;13818;52.156;5.382;2023-06-22T06:25:25;17.17;;;11.18;;
26042;SDS011;13818;52.156;5.382;2023-06-22T06:27:51;19.42;;;11.68;;
26042;SDS011;13818;52.156;5.382;2023-06-22T06:30:19;18.07;;;10.87;;
26042;SDS011;13818;52.156;5.382;2023-06-22T06:32:46;19.85;;;12.43;;
26042;SDS011;13818;52.156;5.382;2023-06-22T06:35:14;19.48;;;11.18;;
26042;SDS011;13818;52.156;5.382;2023-06-22T06:37:42;19.60;;;11.43;;
26042;SDS011;13818;52.156;5.382;2023-06-22T06:40:12;17.27;;;11.07;;
26042;SDS011;13818;52.156;5.382;2023-06-22T06:42:40;17.42;;;10.88;;
26042;SDS011;13818;52.156;5.382;2023-06-22T06:45:09;17.75;;;11.90;;
26042;SDS011;13818;52.156;5.382;2023-06-22T06:47:36;15.75;;;8.65;;
26042;SDS011;13818;52.156;5.382;2023-06-22T06:50:03;21.50;;;11.73;;
26042;SDS011;13818;52.156;5.382;2023-06-22T06:52:31;17.33;;;9.93;;
26042;SDS011;13818;52.156;5.382;2023-06-22T06:54:57;14.98;;;9.68;;
26042;SDS011;13818;52.156;5.382;2023-06-22T06:57:25;17.05;;;9.52;;
26042;SDS011;13818;52.156;5.382;2023-06-22T06:59:53;16.58;;;9.68;;
26042;SDS011;13818;52.156;5.382;2023-06-22T07:02:20;15.98;;;10.35;;
26042;SDS011;13818;52.156;5.382;2023-06-22T07:04:46;15.75;;;10.18;;
26042;SDS011;13818;52.156;5.382;2023-06-22T07:07:13;18.52;;;11.13;;
26042;SDS011;13818;52.156;5.382;2023-06-22T07:09:40;19.45;;;10.95;;
26042;SDS011;13818;52.156;5.382;2023-06-22T07:12:07;17.25;;;10.18;;
26042;SDS011;13818;52.156;5.382;2023-06-22T07:14:35;17.60;;;10.90;;
26042;SDS011;13818;52.156;5.382;2023-06-22T07:17:02;16.88;;;10.02;;
26042;SDS011;13818;52.156;5.382;2023-06-22T07:19:28;16.85;;;10.00;;
26042;SDS011;13818;52.156;5.382;2023-06-22T07:21:56;19.75;;;10.57;;
26042;SDS011;13818;52.156;5.382;2023-06-22T07:24:23;14.27;;;8.88;;
26042;SDS011;13818;52.156;5.382;2023-06-22T07:26:51;13.82;;;9.68;;
26042;SDS011;13818;52.156;5.382;2023-06-22T07:29:17;16.38;;;9.95;;
26042;SDS011;13818;52.156;5.382;2023-06-22T07:31:46;18.60;;;9.75;;
26042;SDS011;13818;52.156;5.382;2023-06-22T07:34:14;18.05;;;9.80;;
26042;SDS011;13818;52.156;5.382;2023-06-22T07:36:41;14.60;;;9.00;;
26042;SDS011;13818;52.156;5.382;2023-06-22T07:39:07;14.18;;;8.85;;
26042;SDS011;13818;52.156;5.382;2023-06-22T07:41:34;15.57;;;9.32;;
26042;SDS011;13818;52.156;5.382;2023-06-22T07:44:01;19.70;;;10.05;;
26042;SDS011;13818;52.156;5.382;2023-06-22T07:46:28;14.57;;;8.35;;
26042;SDS011;13818;52.156;5.382;2023-06-22T07:48:56;14.13;;;7.95;;
26042;SDS011;13818;52.156;5.382;2023-06-22T07:51:23;11.50;;;7.10;;
26042;SDS011;13818;52.156;5.382;2023-06-22T07:53:49;13.73;;;8.35;;
26042;SDS011;13818;52.156;5.382;2023-06-22T07:56:16;13.63;;;8.00;;
26042;SDS011;13818;52.156;5.382;2023-06-22T07:58:44;12.43;;;7.95;;
26042;SDS011;13818;52.156;5.382;2023-06-22T08:01:11;12.25;;;7.38;;
26042;SDS011;13818;52.156;5.382;2023-06-22T08:03:38;11.25;;;7.03;;
26042;SDS011;13818;52.156;5.382;2023-06-22T08:06:06;14.60;;;6.93;;
26042;SDS011;13818;52.156;5.382;2023-06-22T08:08:34;13.93;;;7.90;;
26042;SDS011;13818;52.156;5.382;2023-06-22T08:11:00;8.95;;;5.22;;
26042;SDS011;13818;52.156;5.382;2023-06-22T08:13:27;10.32;;;5.85;;
26042;SDS011;13818;52.156;5.382;2023-06-22T08:15:53;10.88;;;6.82;;
26042;SDS011;13818;52.156;5.382;2023-06-22T08:18:20;12.82;;;6.57;;
26042;SDS011;13818;52.156;5.382;2023-06-22T08:20:47;10.30;;;6.05;;
26042;SDS011;13818;52.156;5.382;2023-06-22T08:23:15;11.18;;;5.65;;
26042;SDS011;13818;52.156;5.382;2023-06-22T08:25:41;12.98;;;5.95;;
26042;SDS011;13818;52.156;5.382;2023-06-22T08:28:08;9.70;;;6.18;;
26042;SDS011;13818;52.156;5.382;2023-06-22T08:30:34;12.35;;;6.85;;
26042;SDS011;13818;52.156;5.382;2023-06-22T08:33:01;10.57;;;6.43;;
26042;SDS011;13818;52.156;5.382;2023-06-22T08:35:27;12.80;;;7.05;;
26042;SDS011;13818;52.156;5.382;2023-06-22T08:37:54;14.85;;;7.38;;
26042;SDS011;13818;52.156;5.382;2023-06-22T08:40:23;11.27;;;6.13;;
26042;SDS011;13818;52.156;5.382;2023-06-22T08:42:49;11.18;;;5.93;;
26042;SDS011;13818;52.156;5.382;2023-06-22T08:45:16;9.52;;;5.35;;
26042;SDS011;13818;52.156;5.382;2023-06-22T08:47:42;10.52;;;5.68;;
26042;SDS011;13818;52.156;5.382;2023-06-22T08:50:09;10.23;;;6.07;;
26042;SDS011;13818;52.156;5.382;2023-06-22T08:52:37;10.23;;;6.53;;
26042;SDS011;13818;52.156;5.382;2023-06-22T08:55:06;10.23;;;5.30;;
26042;SDS011;13818;52.156;5.382;2023-06-22T08:57:35;9.48;;;5.55;;
26042;SDS011;13818;52.156;5.382;2023-06-22T09:00:03;7.97;;;4.85;;
26042;SDS011;13818;52.156;5.382;2023-06-22T09:02:33;8.48;;;4.50;;
26042;SDS011;13818;52.156;5.382;2023-06-22T09:05:03;6.15;;;2.92;;
26042;SDS011;13818;52.156;5.382;2023-06-22T09:07:30;7.18;;;3.60;;
26042;SDS011;13818;52.156;5.382;2023-06-22T09:09:56;8.88;;;4.05;;
26042;SDS011;13818;52.156;5.382;2023-06-22T09:12:23;7.40;;;4.20;;
26042;SDS011;13818;52.156;5.382;2023-06-22T09:14:53;7.18;;;3.92;;
26042;SDS011;13818;52.156;5.382;2023-06-22T09:17:19;7.95;;;3.45;;
26042;SDS011;13818;52.156;5.382;2023-06-22T09:19:46;5.75;;;3.40;;
26042;SDS011;13818;52.156;5.382;2023-06-22T09:22:13;6.05;;;3.05;;
26042;SDS011;13818;52.156;5.382;2023-06-22T09:24:41;6.70;;;3.45;;
26042;SDS011;13818;52.156;5.382;2023-06-22T09:27:07;6.05;;;3.05;;
26042;SDS011;13818;52.156;5.382;2023-06-22T09:29:34;6.15;;;3.03;;
26042;SDS011;13818;52.156;5.382;2023-06-22T09:32:02;8.13;;;3.90;;
26042;SDS011;13818;52.156;5.382;2023-06-22T09:34:28;7.50;;;4.30;;
26042;SDS011;13818;52.156;5.382;2023-06-22T09:36:56;10.05;;;4.85;;
26042;SDS011;13818;52.156;5.382;2023-06-22T09:41:51;9.43;;;4.28;;
26042;SDS011;13818;52.156;5.382;2023-06-22T09:44:18;7.20;;;3.65;;
26042;SDS011;13818;52.156;5.382;2023-06-22T09:46:44;5.97;;;2.70;;
26042;SDS011;13818;52.156;5.382;2023-06-22T09:49:12;7.82;;;3.17;;
26042;SDS011;13818;52.156;5.382;2023-06-22T09:51:39;9.02;;;4.30;;
26042;SDS011;13818;52.156;5.382;2023-06-22T09:54:05;6.63;;;3.53;;
26042;SDS011;13818;52.156;5.382;2023-06-22T09:56:32;6.32;;;3.50;;
26042;SDS011;13818;52.156;5.382;2023-06-22T09:58:58;8.05;;;3.53;;
26042;SDS011;13818;52.156;5.382;2023-06-22T10:01:25;5.38;;;3.05;;
26042;SDS011;13818;52.156;5.382;2023-06-22T10:03:52;6.70;;;3.55;;
26042;SDS011;13818;52.156;5.382;2023-06-22T10:06:22;6.28;;;2.85;;
26042;SDS011;13818;52.156;5.382;2023-06-22T10:11:16;5.53;;;3.28;;
26042;SDS011;13818;52.156;5.382;2023-06-22T10:13:43;7.00;;;3.65;;
26042;SDS011;13818;52.156;5.382;2023-06-22T10:16:09;7.00;;;2.97;;
26042;SDS011;13818;52.156;5.382;2023-06-22T10:18:36;6.07;;;3.00;;
26042;SDS011;13818;52.156;5.382;2023-06-22T10:21:03;6.63;;;3.17;;
26042;SDS011;13818;52.156;5.382;2023-06-22T10:23:31;5.88;;;2.90;;
26042;SDS011;13818;52.156;5.382;2023-06-22T10:25:57;6.20;;;3.03;;
26042;SDS011;13818;52.156;5.382;2023-06-22T10:28:24;5.53;;;3.22;;
26042;SDS011;13818;52.156;5.382;2023-06-22T10:30:50;6.03;;;3.22;;
26042;SDS011;13818;52.156;5.382;2023-06-22T10:33:17;10.18;;;4.53;;
26042;SDS011;13818;52.156;5.382;2023-06-22T10:35:43;11.23;;;5.35;;
26042;SDS011;13818;52.156;5.382;2023-06-22T10:38:10;9.52;;;4.50;;
26042;SDS011;13818;52.156;5.382;2023-06-22T10:40:38;6.93;;;4.18;;
26042;SDS011;13818;52.156;5.382;2023-06-22T10:43:05;13.32;;;6.30;;
26042;SDS011;13818;52.156;5.382;2023-06-22T10:45:32;11.82;;;5.68;;
26042;SDS011;13818;52.156;5.382;2023-06-22T10:47:58;13.55;;;7.55;;
26042;SDS011;13818;52.156;5.382;2023-06-22T10:50:25;8.80;;;5.50;;
26042;SDS011;13818;52.156;5.382;2023-06-22T10:52:51;15.65;;;7.45;;
26042;SDS011;13818;52.156;5.382;2023-06-22T10:55:18;11.55;;;6.15;;
26042;SDS011;13818;52.156;5.382;2023-06-22T10:57:46;10.88;;;6.85;;
26042;SDS011;13818;52.156;5.382;2023-06-22T11:00:13;9.93;;;6.18;;
26042;SDS011;13818;52.156;5.382;2023-06-22T11:02:40;12.63;;;7.32;;
26042;SDS011;13818;52.156;5.382;2023-06-22T11:05:07;11.23;;;6.10;;
26042;SDS011;13818;52.156;5.382;2023-06-22T11:07:34;9.23;;;5.40;;
26042;SDS011;13818;52.156;5.382;2023-06-22T11:10:00;9.95;;;6.47;;
26042;SDS011;13818;52.156;5.382;2023-06-22T11:12:27;12.40;;;7.10;;
26042;SDS011;13818;52.156;5.382;2023-06-22T11:14:55;11.93;;;5.93;;
26042;SDS011;13818;52.156;5.382;2023-06-22T11:17:22;13.88;;;7.47;;
26042;SDS011;13818;52.156;5.382;2023-06-22T11:19:49;12.63;;;6.65;;
26042;SDS011;13818;52.156;5.382;2023-06-22T11:22:15;12.25;;;6.28;;
26042;SDS011;13818;52.156;5.382;2023-06-22T11:24:41;11.13;;;5.85;;
26042;SDS011;13818;52.156;5.382;2023-06-22T11:27:08;9.88;;;5.97;;
26042;SDS011;13818;52.156;5.382;2023-06-22T11:29:34;11.57;;;6.07;;
26042;SDS011;13818;52.156;5.382;2023-06-22T11:32:02;16.42;;;7.57;;
26042;SDS011;13818;52.156;5.382;2023-06-22T11:34:29;12.65;;;7.25;;
26042;SDS011;13818;52.156;5.382;2023-06-22T11:36:56;11.90;;;7.15;;
26042;SDS011;13818;52.156;5.382;2023-06-22T11:39:22;15.10;;;7.55;;
26042;SDS011;13818;52.156;5.382;2023-06-22T11:41:48;13.15;;;8.00;;
26042;SDS011;13818;52.156;5.382;2023-06-22T11:44:15;14.00;;;7.40;;
26042;SDS011;13818;52.156;5.382;2023-06-22T11:46:41;13.98;;;6.47;;
26042;SDS011;13818;52.156;5.382;2023-06-22T11:49:09;12.13;;;6.57;;
26042;SDS011;13818;52.156;5.382;2023-06-22T11:51:36;14.52;;;7.28;;
26042;SDS011;13818;52.156;5.382;2023-06-22T11:54:02;14.73;;;6.68;;
26042;SDS011;13818;52.156;5.382;2023-06-22T11:56:28;11.52;;;6.80;;
26042;SDS011;13818;52.156;5.382;2023-06-22T11:58:55;11.55;;;7.28;;
26042;SDS011;13818;52.156;5.382;2023-06-22T12:01:21;13.65;;;7.07;;
26042;SDS011;13818;52.156;5.382;2023-06-22T12:03:48;13.45;;;7.10;;
26042;SDS011;13818;52.156;5.382;2023-06-22T12:06:16;12.50;;;6.97;;
26042;SDS011;13818;52.156;5.382;2023-06-22T12:08:42;13.13;;;7.35;;
26042;SDS011;13818;52.156;5.382;2023-06-22T12:11:08;10.23;;;5.95;;
26042;SDS011;13818;52.156;5.382;2023-06-22T12:13:35;12.55;;;6.90;;
26042;SDS011;13818;52.156;5.382;2023-06-22T12:16:01;12.20;;;6.32;;
26042;SDS011;13818;52.156;5.382;2023-06-22T12:18:28;12.40;;;5.80;;
26042;SDS011;13818;52.156;5.382;2023-06-22T12:20:54;11.63;;;6.22;;
26042;SDS011;13818;52.156;5.382;2023-06-22T12:23:22;13.20;;;6.15;;
26042;SDS011;13818;52.156;5.382;2023-06-22T12:25:49;11.65;;;6.75;;
26042;SDS011;13818;52.156;5.382;2023-06-22T12:28:15;13.45;;;6.15;;
26042;SDS011;13818;52.156;5.382;2023-06-22T12:30:43;12.77;;;5.55;;
26042;SDS011;13818;52.156;5.382;2023-06-22T12:33:10;13.15;;;6.10;;
26042;SDS011;13818;52.156;5.382;2023-06-22T12:35:36;10.10;;;5.82;;
26042;SDS011;13818;52.156;5.382;2023-06-22T12:38:04;12.48;;;6.15;;
26042;SDS011;13818;52.156;5.382;2023-06-22T12:40:32;10.03;;;5.13;;
26042;SDS011;13818;52.156;5.382;2023-06-22T12:42:59;12.25;;;5.43;;
26042;SDS011;13818;52.156;5.382;2023-06-22T12:45:27;7.70;;;5.13;;
26042;SDS011;13818;52.156;5.382;2023-06-22T12:47:56;13.50;;;6.80;;
26042;SDS011;13818;52.156;5.382;2023-06-22T12:50:23;17.00;;;6.57;;
26042;SDS011;13818;52.156;5.382;2023-06-22T12:52:49;11.48;;;5.68;;
26042;SDS011;13818;52.156;5.382;2023-06-22T12:55:17;12.88;;;6.80;;
26042;SDS011;13818;52.156;5.382;2023-06-22T12:57:45;11.90;;;6.28;;
26042;SDS011;13818;52.156;5.382;2023-06-22T13:00:12;15.25;;;7.38;;
26042;SDS011;13818;52.156;5.382;2023-06-22T13:02:39;9.15;;;5.18;;
26042;SDS011;13818;52.156;5.382;2023-06-22T13:05:06;10.50;;;5.95;;
26042;SDS011;13818;52.156;5.382;2023-06-22T13:07:33;16.05;;;6.40;;
26042;SDS011;13818;52.156;5.382;2023-06-22T13:10:00;13.30;;;6.15;;
26042;SDS011;13818;52.156;5.382;2023-06-22T13:12:26;8.57;;;4.82;;
26042;SDS011;13818;52.156;5.382;2023-06-22T13:14:54;10.55;;;5.50;;
26042;SDS011;13818;52.156;5.382;2023-06-22T13:17:20;10.23;;;6.00;;
26042;SDS011;13818;52.156;5.382;2023-06-22T13:19:47;10.70;;;5.85;;
26042;SDS011;13818;52.156;5.382;2023-06-22T13:22:26;9.77;;;5.75;;
26042;SDS011;13818;52.156;5.382;2023-06-22T13:24:54;12.40;;;6.88;;
26042;SDS011;13818;52.156;5.382;2023-06-22T13:27:21;13.85;;;7.30;;
26042;SDS011;13818;52.156;5.382;2023-06-22T13:29:47;14.80;;;6.80;;
26042;SDS011;13818;52.156;5.382;2023-06-22T13:32:15;13.73;;;7.45;;
26042;SDS011;13818;52.156;5.382;2023-06-22T13:34:41;13.68;;;7.78;;
26042;SDS011;13818;52.156;5.382;2023-06-22T13:37:08;12.05;;;7.55;;
26042;SDS011;13818;52.156;5.382;2023-06-22T13:39:34;12.23;;;7.03;;
26042;SDS011;13818;52.156;5.382;2023-06-22T13:42:01;14.20;;;7.55;;
26042;SDS011;13818;52.156;5.382;2023-06-22T13:44:27;11.73;;;5.88;;
26042;SDS011;13818;52.156;5.382;2023-06-22T13:46:54;11.40;;;7.53;;
26042;SDS011;13818;52.156;5.382;2023-06-22T13:49:22;11.63;;;7.38;;
26042;SDS011;13818;52.156;5.382;2023-06-22T13:51:49;11.85;;;7.38;;
26042;SDS011;13818;52.156;5.382;2023-06-22T13:54:15;13.45;;;7.13;;
26042;SDS011;13818;52.156;5.382;2023-06-22T13:56:42;15.70;;;8.40;;
26042;SDS011;13818;52.156;5.382;2023-06-22T13:59:08;11.60;;;7.72;;
26042;SDS011;13818;52.156;5.382;2023-06-22T14:01:35;13.23;;;8.50;;
26042;SDS011;13818;52.156;5.382;2023-06-22T14:04:04;12.97;;;7.37;;
26042;SDS011;13818;52.156;5.382;2023-06-22T14:06:31;15.45;;;8.57;;
26042;SDS011;13818;52.156;5.382;2023-06-22T14:08:58;13.38;;;8.52;;
26042;SDS011;13818;52.156;5.382;2023-06-22T14:11:25;9.60;;;6.18;;
26042;SDS011;13818;52.156;5.382;2023-06-22T14:13:51;13.35;;;8.50;;
26042;SDS011;13818;52.156;5.382;2023-06-22T14:16:18;12.07;;;7.57;;
26042;SDS011;13818;52.156;5.382;2023-06-22T14:18:44;15.32;;;8.07;;
26042;SDS011;13818;52.156;5.382;2023-06-22T14:21:11;14.27;;;8.15;;
26042;SDS011;13818;52.156;5.382;2023-06-22T14:23:39;13.90;;;8.57;;
26042;SDS011;13818;52.156;5.382;2023-06-22T14:26:05;14.63;;;8.43;;
26042;SDS011;13818;52.156;5.382;2023-06-22T14:28:31;14.38;;;8.95;;
26042;SDS011;13818;52.156;5.382;2023-06-22T14:30:58;15.52;;;8.77;;
26042;SDS011;13818;52.156;5.382;2023-06-22T14:33:24;10.90;;;7.80;;
26042;SDS011;13818;52.156;5.382;2023-06-22T14:35:52;17.13;;;9.05;;
26042;SDS011;13818;52.156;5.382;2023-06-22T14:38:18;10.68;;;6.50;;
26042;SDS011;13818;52.156;5.382;2023-06-22T14:40:47;11.63;;;6.88;;
26042;SDS011;13818;52.156;5.382;2023-06-22T14:43:14;8.45;;;4.90;;
26042;SDS011;13818;52.156;5.382;2023-06-22T14:45:40;14.73;;;8.85;;
26042;SDS011;13818;52.156;5.382;2023-06-22T14:48:07;15.63;;;9.30;;